createdAt,value
2023-10-30T00:07:57.975Z,88.1
2023-10-30T00:23:18.779Z,88.1
2023-10-30T00:38:38.599Z,89
2023-10-30T00:53:59.401Z,89.4
2023-10-30T01:09:20.205Z,89.7
2023-10-30T01:24:41.008Z,90.2
2023-10-30T01:40:01.811Z,90.8
2023-10-30T01:55:22.615Z,91.6
2023-10-30T02:10:42.440Z,91.5
2023-10-30T02:26:03.243Z,92.1
2023-10-30T02:41:24.047Z,92.3
2023-10-30T02:56:44.851Z,90.9
2023-10-30T03:12:05.655Z,91.4
2023-10-30T03:27:26.459Z,91.2
2023-10-30T03:42:47.262Z,90.7
2023-10-30T03:58:08.067Z,90.2
2023-10-30T04:13:28.870Z,89.7
2023-10-30T04:28:49.673Z,88.8
2023-10-30T04:44:10.477Z,88.4
2023-10-30T04:59:31.280Z,87.6
2023-10-30T05:14:52.084Z,87.7
2023-10-30T05:30:11.904Z,88.3
2023-10-30T05:45:32.668Z,87.4
2023-10-30T06:00:53.427Z,88.7
2023-10-30T06:16:14.188Z,89.3
2023-10-30T06:31:34.948Z,89.5
2023-10-30T06:46:55.709Z,89.5
2023-10-30T07:02:16.469Z,88.7
2023-10-30T07:17:37.231Z,86.9
2023-10-30T07:32:57.994Z,87.6
2023-10-30T07:48:18.755Z,87.1
2023-10-30T08:03:39.517Z,87.5
2023-10-30T08:19:00.278Z,87.2
2023-10-30T08:34:21.040Z,86.7
2023-10-30T08:49:40.818Z,84.5
2023-10-30T09:05:01.577Z,83.3
2023-10-30T09:20:22.339Z,84.3
2023-10-30T09:35:43.099Z,84
2023-10-30T09:51:03.860Z,84.4
2023-10-30T10:06:24.622Z,83.8
2023-10-30T10:21:45.383Z,84.6
2023-10-30T10:37:06.144Z,84
2023-10-30T10:52:26.905Z,82.6
2023-10-30T11:07:47.664Z,83.2
2023-10-30T11:23:08.423Z,83.5
2023-10-30T11:38:29.183Z,83.7
2023-10-30T11:53:49.944Z,83.5
2023-10-30T12:09:09.720Z,87.3
2023-10-30T12:24:30.480Z,88.3
2023-10-30T12:39:51.239Z,87.4
2023-10-30T12:55:12.002Z,83
2023-10-30T13:10:32.761Z,84.7
2023-10-30T13:25:53.521Z,83.7
2023-10-30T13:41:14.280Z,84.5
2023-10-30T13:56:35.042Z,84.1
2023-10-30T14:11:55.802Z,86.7
2023-10-30T14:27:16.564Z,86.6
2023-10-30T14:42:37.324Z,87.9
2023-10-30T14:57:58.084Z,90.2
2023-10-30T15:13:18.844Z,92.1
2023-10-30T15:28:38.620Z,92.2
2023-10-30T15:43:59.381Z,91.8
2023-10-30T15:59:20.141Z,91.5
2023-10-30T16:14:40.945Z,90.8
2023-10-30T16:30:01.748Z,90.7
2023-10-30T16:45:22.558Z,91.9
2023-10-30T17:00:43.361Z,93.4
2023-10-30T17:16:04.164Z,92.6
2023-10-30T17:31:24.969Z,91.9
2023-10-30T17:46:45.773Z,91.2
2023-10-30T18:02:06.580Z,90.7
2023-10-30T18:17:27.388Z,92
2023-10-30T18:32:48.178Z,92.8
2023-10-30T18:48:08.012Z,93.5
2023-10-30T19:03:28.818Z,94.5
2023-10-30T19:18:49.622Z,95.3
2023-10-30T19:34:10.426Z,94.2
2023-10-30T19:49:31.231Z,94.7
2023-10-30T20:04:52.035Z,95.3
2023-10-30T20:20:12.833Z,95.4
2023-10-30T20:35:33.645Z,96.5
2023-10-30T20:50:54.449Z,96.8
2023-10-30T21:06:15.244Z,97.4
2023-10-30T21:21:36.058Z,96.7
2023-10-30T21:36:56.862Z,96.5
2023-10-30T21:52:17.667Z,95.5
2023-10-30T22:07:37.487Z,96.2
2023-10-30T22:22:58.292Z,97.9
2023-10-30T22:38:19.096Z,99.1
2023-10-30T22:53:39.900Z,99.5
2023-10-30T23:09:00.705Z,100
2023-10-30T23:24:21.510Z,100
2023-10-30T23:39:42.314Z,100
2023-10-30T23:55:03.109Z,100
